Flight Track Log - Related Links

Times and Time Zones

All times are in EDT time to prevent confusion due to time zone crossing. See the ASH1070 flight status page for this flight to view local times or setup timezone preferences in your user account.

Time Position Orientation Groundspeed Altitude Reporting Facility
EDT Latitude Longitude Course Direction KTS MPH feet Rate Location/Type
Wed 02:58:15 PM 20.9167 -156.4000 62° Northeast 170 196 1,700  Level Honolulu Center
Wed 02:59:15 PM 20.9333 -156.3667 126° Southeast 200 230 4,300 2,727 Climbing Honolulu Center
Wed 03:00:16 PM 20.9000 -156.3167 105° East 210 242 7,200 2,430 Climbing Honolulu Center
Wed 03:01:16 PM 20.8833 -156.2500 102° East 230 265 9,200 2,000 Climbing Honolulu Center
Wed 03:02:16 PM 20.8667 -156.1667 90° East 290 334 11,200 1,884 Climbing Honolulu Center
Wed 03:03:17 PM 20.8667 -156.0833 118° Southeast 300 345 13,000 1,686 Climbing Honolulu Center
Wed 03:04:17 PM 20.8333 -156.0167 171° South 330 380 14,600 1,750 Climbing Honolulu Center
Wed 03:05:17 PM 20.7333 -156.0000 180° South 320 368 16,500 1,190 Climbing Honolulu Center
Wed 03:06:18 PM 20.6500 -156.0000 189° South 320 368 17,000 248 Climbing Honolulu Center
Wed 03:07:18 PM 20.5500 -156.0167 180° South 320 368 17,000 -700 Level Honolulu Center
Wed 03:08:18 PM 20.4667 -156.0167 180° South 320 368 15,600 -1,736 Descending Honolulu Center
Wed 03:09:19 PM 20.3833 -156.0167 180° South 320 368 13,500 -2,033 Descending Honolulu Center
Wed 03:10:19 PM 20.3000 -156.0167 180° South 300 345 11,500 -2,100 Descending Honolulu Center
Wed 03:11:19 PM 20.2167 -156.0167 180° South 280 322 9,300 -2,281 Descending Honolulu Center
Wed 03:12:20 PM 20.1333 -156.0167 191° South 290 334 6,900 -2,231 Descending Honolulu Center
Wed 03:13:20 PM 20.0500 -156.0333 167° South 280 322 4,800 -1,450 Descending Honolulu Center
Wed 03:14:20 PM 19.9833 -156.0167 180° South 250 288 4,000 -650 Descending Honolulu Center
Wed 03:15:20 PM 19.9167 -156.0167 193° South 220 253 3,500 -942 Descending Honolulu Center
Wed 03:16:21 PM 19.8500 -156.0333 180° South 220 253 2,100 -1,190 Descending Honolulu Center
Wed 03:17:21 PM 19.8000 -156.0333 180° South 160 184 1,100 -843 Descending Honolulu Center
Wed 03:18:22 PM 19.7667 -156.0333 180° South 140 161 400 -689 Descending Honolulu Center

Login

Don't have an account? Register now (free) for customized features, flight alerts, and more!